createdAt,value
2023-05-10T00:01:18.502Z,3.40
2023-05-10T00:03:47.032Z,2.90
2023-05-10T00:06:15.390Z,3.10
2023-05-10T00:08:43.856Z,2.90
2023-05-10T00:11:12.212Z,2.80
2023-05-10T00:13:40.558Z,3.10
2023-05-10T00:16:09.009Z,3.00
2023-05-10T00:18:37.332Z,3.00
2023-05-10T00:21:06.015Z,3.00
2023-05-10T00:23:34.350Z,3.10
2023-05-10T00:26:03.113Z,3.20
2023-05-10T00:28:31.446Z,2.90
2023-05-10T00:30:59.788Z,2.70
2023-05-10T00:33:28.141Z,3.00
2023-05-10T00:35:56.433Z,2.80
2023-05-10T00:38:24.793Z,3.00
2023-05-10T00:40:53.139Z,2.70
2023-05-10T00:43:27.444Z,3.30
2023-05-10T00:45:56.051Z,3.00
2023-05-10T00:48:24.807Z,3.10
2023-05-10T00:50:53.229Z,3.10
2023-05-10T00:53:22.084Z,4.00
2023-05-10T00:55:50.499Z,2.80
2023-05-10T00:58:18.803Z,2.80
2023-05-10T01:00:49.540Z,2.70
2023-05-10T01:03:18.430Z,3.00
2023-05-10T01:05:46.826Z,3.00
2023-05-10T01:08:15.439Z,2.70
2023-05-10T01:10:44.405Z,2.60
2023-05-10T01:13:14.648Z,2.90
2023-05-10T01:15:43.333Z,2.80
2023-05-10T01:18:11.979Z,3.10
2023-05-10T01:20:47.487Z,3.40
2023-05-10T01:23:48.170Z,3.20
2023-05-10T01:26:47.872Z,2.80
2023-05-10T01:29:39.387Z,3.00
2023-05-10T01:32:45.196Z,2.90
2023-05-10T01:35:44.574Z,2.70
2023-05-10T01:38:25.193Z,2.30
2023-05-10T01:41:09.353Z,3.00
2023-05-10T01:43:53.729Z,2.30
2023-05-10T01:46:30.093Z,2.90
2023-05-10T01:49:01.984Z,2.60
2023-05-10T01:51:43.040Z,2.90
2023-05-10T01:56:41.998Z,2.60
2023-05-10T01:59:15.268Z,3.00
2023-05-10T02:01:46.187Z,3.00
2023-05-10T02:06:49.060Z,3.00
2023-05-10T02:09:19.045Z,3.30
2023-05-10T02:11:50.297Z,3.40
2023-05-10T02:14:20.578Z,2.80
2023-05-10T02:16:52.070Z,2.50
2023-05-10T02:19:22.800Z,2.70
2023-05-10T02:21:52.463Z,3.00
2023-05-10T02:24:22.710Z,3.20
2023-05-10T02:26:52.541Z,3.20
2023-05-10T02:29:21.676Z,2.80
2023-05-10T02:31:52.913Z,3.00
2023-05-10T02:34:23.287Z,3.00
2023-05-10T02:36:53.460Z,2.70
2023-05-10T02:39:23.344Z,2.80
2023-05-10T02:41:54.235Z,2.60
2023-05-10T02:44:24.551Z,2.60
2023-05-10T02:46:52.902Z,2.90
2023-05-10T02:49:21.747Z,2.40
2023-05-10T02:51:55.626Z,2.60
2023-05-10T02:54:30.982Z,2.70
2023-05-10T02:57:02.532Z,2.70
2023-05-10T02:59:30.924Z,3.00
2023-05-10T03:02:01.671Z,2.70
2023-05-10T03:04:30.020Z,3.00
2023-05-10T03:06:59.092Z,2.50
2023-05-10T03:09:27.567Z,2.40
2023-05-10T03:12:33.326Z,2.20
2023-05-10T03:15:20.219Z,2.60
2023-05-10T03:18:16.707Z,3.00
2023-05-10T03:20:50.078Z,2.50
2023-05-10T03:23:18.434Z,2.60
2023-05-10T03:25:49.239Z,2.30
2023-05-10T03:28:19.878Z,2.30
2023-05-10T03:30:49.390Z,2.40
2023-05-10T03:33:17.951Z,3.00
2023-05-10T03:35:47.687Z,2.80
2023-05-10T03:38:16.262Z,2.40
2023-05-10T03:40:44.684Z,2.50
2023-05-10T03:43:13.126Z,2.40
2023-05-10T03:45:41.671Z,3.20
2023-05-10T03:48:09.985Z,2.60
2023-05-10T03:50:38.343Z,2.90
2023-05-10T03:53:06.720Z,3.00
2023-05-10T03:55:37.270Z,3.40
2023-05-10T03:58:05.685Z,2.90
2023-05-10T04:00:34.666Z,2.80
2023-05-10T04:03:03.183Z,3.30
2023-05-10T04:05:31.560Z,2.60
2023-05-10T04:07:59.996Z,3.00
2023-05-10T04:10:28.404Z,3.10
2023-05-10T04:12:56.957Z,2.90
2023-05-10T04:15:25.480Z,3.00
2023-05-10T04:17:54.829Z,3.50
2023-05-10T04:20:23.176Z,3.30
2023-05-10T04:22:51.489Z,3.60
2023-05-10T04:25:19.859Z,3.30
2023-05-10T04:27:48.293Z,3.00
2023-05-10T04:30:16.770Z,3.50
2023-05-10T04:32:45.497Z,4.20
2023-05-10T04:35:15.976Z,4.20
2023-05-10T04:37:44.606Z,4.50
2023-05-10T04:40:13.290Z,4.50
2023-05-10T04:42:42.623Z,5.00
2023-05-10T04:45:11.339Z,5.40
2023-05-10T04:47:39.691Z,4.10
2023-05-10T04:50:08.766Z,5.50
2023-05-10T04:52:37.699Z,6.00
2023-05-10T04:55:08.508Z,4.00
2023-05-10T04:57:36.837Z,3.80
2023-05-10T05:00:05.697Z,3.70
2023-05-10T05:02:34.085Z,3.50
2023-05-10T05:05:02.505Z,4.50
2023-05-10T05:07:31.839Z,3.50
2023-05-10T05:10:00.178Z,2.60
2023-05-10T05:12:28.522Z,2.80
2023-05-10T05:14:57.195Z,2.30
2023-05-10T05:17:25.889Z,2.20
2023-05-10T05:19:54.279Z,2.20
2023-05-10T05:22:28.594Z,2.40
2023-05-10T05:24:59.267Z,2.30
2023-05-10T05:27:29.025Z,2.50
2023-05-10T05:29:58.066Z,2.20
2023-05-10T05:32:26.619Z,2.40
2023-05-10T05:34:55.040Z,2.10
2023-05-10T05:37:23.682Z,2.40
2023-05-10T05:39:52.149Z,2.30
2023-05-10T05:42:20.526Z,2.40
2023-05-10T05:44:48.843Z,2.20
2023-05-10T05:47:17.255Z,2.40
2023-05-10T05:49:46.998Z,2.00
2023-05-10T05:52:15.387Z,2.10
2023-05-10T05:54:43.705Z,2.60
2023-05-10T05:57:12.172Z,2.00
2023-05-10T05:59:44.926Z,2.30
2023-05-10T06:02:13.423Z,2.50
2023-05-10T06:04:44.544Z,2.60
2023-05-10T06:07:13.240Z,2.50
2023-05-10T06:09:41.631Z,2.30
2023-05-10T06:12:10.040Z,2.20
2023-05-10T06:14:38.370Z,2.40
2023-05-10T06:17:07.901Z,2.30
2023-05-10T06:19:37.877Z,2.10
2023-05-10T06:22:06.380Z,2.40
2023-05-10T06:24:34.775Z,2.30
2023-05-10T06:27:03.290Z,2.30
2023-05-10T06:29:31.635Z,2.60
2023-05-10T06:32:00.120Z,2.60
2023-05-10T06:34:28.411Z,2.20
2023-05-10T06:36:56.927Z,2.20
2023-05-10T06:39:25.235Z,2.10
2023-05-10T06:41:53.553Z,2.60
2023-05-10T06:44:22.553Z,2.30
2023-05-10T06:46:51.170Z,2.50
2023-05-10T06:49:19.662Z,2.30
2023-05-10T06:51:48.156Z,2.50
2023-05-10T06:54:16.596Z,2.50
2023-05-10T06:56:45.009Z,2.40
2023-05-10T06:59:14.642Z,2.50
2023-05-10T07:01:43.229Z,2.60
2023-05-10T07:04:11.753Z,3.20
2023-05-10T07:06:40.168Z,2.70
2023-05-10T07:09:08.930Z,2.70
2023-05-10T07:11:38.617Z,2.40
2023-05-10T07:14:07.012Z,2.50
2023-05-10T07:16:35.355Z,2.50
2023-05-10T07:19:03.786Z,2.40
2023-05-10T07:21:32.405Z,2.80
2023-05-10T07:24:01.997Z,2.60
2023-05-10T07:26:30.732Z,2.70
2023-05-10T07:28:59.264Z,3.00
2023-05-10T07:31:27.581Z,3.00
2023-05-10T07:33:55.881Z,2.90
2023-05-10T07:36:24.189Z,3.10
2023-05-10T07:38:52.808Z,2.70
2023-05-10T07:41:22.283Z,2.70
2023-05-10T07:43:50.656Z,2.70
2023-05-10T07:46:20.551Z,2.70
2023-05-10T07:48:48.978Z,2.70
2023-05-10T07:51:17.666Z,2.60
2023-05-10T07:53:46.071Z,2.30
2023-05-10T07:56:27.757Z,2.60
2023-05-10T07:59:07.520Z,2.30
2023-05-10T08:01:36.100Z,2.40
2023-05-10T08:04:04.652Z,2.10
2023-05-10T08:06:33.175Z,2.50
2023-05-10T08:09:01.750Z,2.70
2023-05-10T08:11:30.210Z,2.40
2023-05-10T08:13:58.541Z,2.90
2023-05-10T08:16:27.381Z,2.20
2023-05-10T08:18:56.615Z,2.30
2023-05-10T08:21:25.115Z,2.40
2023-05-10T08:23:53.500Z,2.10
2023-05-10T08:26:22.824Z,2.40
2023-05-10T08:28:51.344Z,2.40
2023-05-10T08:31:19.872Z,2.30
2023-05-10T08:33:48.445Z,2.30
2023-05-10T08:36:20.858Z,2.00
2023-05-10T08:38:52.936Z,2.70
2023-05-10T08:41:25.603Z,3.00
2023-05-10T08:43:55.200Z,2.50
2023-05-10T08:46:24.637Z,2.50
2023-05-10T08:48:54.336Z,2.40
2023-05-10T08:51:28.539Z,2.00
2023-05-10T08:53:57.673Z,1.80
2023-05-10T08:56:26.213Z,1.90
2023-05-10T08:58:54.593Z,2.30
2023-05-10T09:01:23.661Z,1.70
2023-05-10T09:03:52.180Z,1.90
2023-05-10T09:06:20.922Z,2.00
2023-05-10T09:08:49.568Z,1.90
2023-05-10T09:11:18.840Z,1.90
2023-05-10T09:13:49.556Z,2.10
2023-05-10T09:18:50.993Z,1.90
2023-05-10T09:21:21.830Z,1.80
2023-05-10T09:26:24.106Z,2.20
2023-05-10T09:28:57.966Z,1.70
2023-05-10T09:31:44.109Z,1.80
2023-05-10T09:34:12.891Z,1.70
2023-05-10T09:36:52.461Z,1.60
2023-05-10T09:39:21.172Z,1.60
2023-05-10T09:41:49.629Z,1.70
2023-05-10T09:44:20.148Z,1.80
2023-05-10T09:46:53.820Z,1.70
2023-05-10T09:49:23.450Z,1.90
2023-05-10T09:52:06.464Z,2.00
2023-05-10T09:54:35.746Z,2.40
2023-05-10T09:57:04.419Z,2.00
2023-05-10T09:59:35.972Z,1.80
2023-05-10T10:02:04.611Z,1.80
2023-05-10T10:04:33.881Z,1.60
2023-05-10T10:07:05.390Z,1.80
2023-05-10T10:09:35.210Z,2.00
2023-05-10T10:12:04.972Z,1.80
2023-05-10T10:14:34.867Z,1.70
2023-05-10T10:19:36.964Z,2.00
2023-05-10T10:22:06.908Z,2.00
2023-05-10T10:24:35.576Z,1.70
2023-05-10T10:27:29.774Z,1.70
2023-05-10T10:30:16.528Z,1.80
2023-05-10T10:33:03.926Z,2.00
2023-05-10T10:35:35.097Z,2.00
2023-05-10T10:38:03.580Z,1.90
2023-05-10T10:40:35.042Z,1.90
2023-05-10T10:43:29.930Z,1.70
2023-05-10T10:46:15.314Z,1.70
2023-05-10T10:49:09.569Z,1.80
2023-05-10T10:51:41.954Z,1.60
2023-05-10T10:54:11.525Z,1.70
2023-05-10T10:56:39.910Z,1.70
2023-05-10T10:59:09.502Z,1.70
2023-05-10T11:01:37.957Z,1.80
2023-05-10T11:04:06.403Z,2.30
2023-05-10T11:06:37.624Z,1.90
2023-05-10T11:09:10.793Z,1.70
2023-05-10T11:11:59.606Z,1.50
2023-05-10T11:14:28.110Z,1.40
2023-05-10T11:16:56.587Z,1.80
2023-05-10T11:19:29.041Z,1.70
2023-05-10T11:22:06.474Z,2.50
2023-05-10T11:24:34.959Z,1.60
2023-05-10T11:27:03.736Z,1.70
2023-05-10T11:29:32.183Z,1.60
2023-05-10T11:32:01.326Z,1.50
2023-05-10T11:34:34.782Z,1.60
2023-05-10T11:37:03.544Z,1.70
2023-05-10T11:39:33.127Z,1.60
2023-05-10T11:42:01.490Z,1.30
2023-05-10T11:44:33.746Z,1.90
2023-05-10T11:47:02.863Z,1.80
2023-05-10T11:49:31.308Z,1.80
2023-05-10T11:52:10.102Z,1.60
2023-05-10T11:54:38.475Z,1.60
2023-05-10T11:57:06.860Z,1.70
2023-05-10T11:59:35.193Z,1.30
2023-05-10T12:02:04.535Z,1.60
2023-05-10T12:04:33.208Z,1.50
2023-05-10T12:07:02.373Z,1.70
2023-05-10T12:09:43.325Z,3.00
2023-05-10T12:12:18.102Z,1.80
2023-05-10T12:14:51.622Z,7.20
2023-05-10T12:17:20.020Z,1.90
2023-05-10T12:19:48.383Z,1.50
2023-05-10T12:22:16.715Z,1.50
2023-05-10T12:24:46.727Z,1.50
2023-05-10T12:27:15.916Z,1.80
2023-05-10T12:29:47.426Z,1.60
2023-05-10T12:32:15.880Z,1.80
2023-05-10T12:34:47.499Z,1.60
2023-05-10T12:37:16.066Z,1.60
2023-05-10T12:39:47.220Z,1.40
2023-05-10T12:42:15.557Z,1.60
2023-05-10T12:44:43.889Z,1.50
2023-05-10T12:47:12.224Z,1.50
2023-05-10T12:49:40.578Z,1.60
2023-05-10T12:52:08.987Z,1.50
2023-05-10T12:54:37.374Z,1.60
2023-05-10T12:57:05.994Z,1.60
2023-05-10T12:59:36.044Z,1.40
2023-05-10T13:02:07.072Z,1.50
2023-05-10T13:04:35.470Z,1.70
2023-05-10T13:07:03.784Z,1.70
2023-05-10T13:09:32.211Z,1.40
2023-05-10T13:12:00.710Z,1.40
2023-05-10T13:14:29.203Z,1.70
2023-05-10T13:16:57.536Z,1.90
2023-05-10T13:19:27.598Z,1.40
2023-05-10T13:21:55.988Z,1.40
2023-05-10T13:24:24.304Z,2.10
2023-05-10T13:26:52.633Z,1.30
2023-05-10T13:29:22.100Z,1.50
2023-05-10T13:31:50.878Z,1.30
2023-05-10T13:34:21.626Z,1.30
2023-05-10T13:36:50.116Z,1.40
2023-05-10T13:39:18.478Z,1.40
2023-05-10T13:41:46.815Z,1.50
2023-05-10T13:44:16.047Z,1.50
2023-05-10T13:46:44.681Z,1.50
2023-05-10T13:49:13.167Z,1.60
2023-05-10T13:51:41.497Z,1.40
2023-05-10T13:54:11.965Z,1.40
2023-05-10T13:56:43.579Z,1.70
2023-05-10T13:59:11.977Z,2.00
2023-05-10T14:01:40.565Z,1.60
2023-05-10T14:04:11.543Z,1.50
2023-05-10T14:06:40.030Z,1.40
2023-05-10T14:09:08.607Z,1.50
2023-05-10T14:11:37.328Z,1.70
2023-05-10T14:14:05.727Z,1.50
2023-05-10T14:16:34.174Z,1.40
2023-05-10T14:19:02.940Z,1.20
2023-05-10T14:21:31.827Z,1.30
2023-05-10T14:24:00.125Z,1.40
2023-05-10T14:26:28.691Z,1.40
2023-05-10T14:28:57.581Z,1.40
2023-05-10T14:31:26.763Z,1.60
2023-05-10T14:33:55.156Z,1.40
2023-05-10T14:36:23.717Z,1.60
2023-05-10T14:38:52.699Z,1.40
2023-05-10T14:41:21.131Z,1.70
2023-05-10T14:43:49.419Z,1.50
2023-05-10T14:46:18.135Z,1.60
2023-05-10T14:48:46.807Z,1.50
2023-05-10T14:51:15.424Z,1.40
2023-05-10T14:53:44.113Z,1.50
2023-05-10T14:56:12.433Z,1.40
2023-05-10T14:58:40.801Z,1.50
2023-05-10T15:01:09.240Z,1.40
2023-05-10T15:03:38.520Z,1.50
2023-05-10T15:06:09.522Z,1.30
2023-05-10T15:08:37.795Z,1.70
2023-05-10T15:11:06.111Z,1.60
2023-05-10T15:13:34.777Z,3.50
2023-05-10T15:16:03.212Z,2.10
2023-05-10T15:18:31.554Z,2.20
2023-05-10T15:20:59.919Z,1.50
2023-05-10T15:23:28.464Z,1.50
2023-05-10T15:25:56.964Z,1.40
2023-05-10T15:28:25.435Z,1.40
2023-05-10T15:30:53.743Z,1.60
2023-05-10T15:33:22.283Z,1.60
2023-05-10T15:35:50.595Z,1.70
2023-05-10T15:38:18.909Z,1.30
2023-05-10T15:40:47.194Z,1.60
2023-05-10T15:43:16.332Z,1.40
2023-05-10T15:45:44.708Z,2.60
2023-05-10T15:48:13.041Z,2.30
2023-05-10T15:50:41.554Z,2.80
2023-05-10T15:53:09.993Z,5.10
2023-05-10T15:55:38.289Z,3.50
2023-05-10T15:58:06.725Z,1.90
2023-05-10T16:00:35.135Z,1.90
2023-05-10T16:03:04.222Z,2.10
2023-05-10T16:05:33.871Z,1.80
2023-05-10T16:08:02.467Z,1.60
2023-05-10T16:10:33.655Z,1.50
2023-05-10T16:13:03.838Z,1.80
2023-05-10T16:15:32.289Z,1.60
2023-05-10T16:18:00.834Z,1.80
2023-05-10T16:20:30.206Z,1.70
2023-05-10T16:23:03.401Z,1.50
2023-05-10T16:25:32.548Z,1.50
2023-05-10T16:28:01.436Z,2.00
2023-05-10T16:30:30.835Z,1.70
2023-05-10T16:33:00.736Z,2.90
2023-05-10T16:35:30.115Z,1.90
2023-05-10T16:37:58.511Z,2.40
2023-05-10T16:40:26.897Z,1.90
2023-05-10T16:42:55.227Z,1.40
2023-05-10T16:45:23.784Z,1.70
2023-05-10T16:47:53.768Z,1.60
2023-05-10T16:50:22.246Z,1.70
2023-05-10T16:52:50.602Z,1.40
2023-05-10T16:55:19.092Z,1.70
2023-05-10T16:57:47.665Z,1.30
2023-05-10T17:00:16.546Z,1.60
2023-05-10T17:02:44.994Z,1.50
2023-05-10T17:05:13.433Z,1.60
2023-05-10T17:07:41.813Z,1.90
2023-05-10T17:10:10.866Z,1.40
2023-05-10T17:12:39.281Z,1.80
2023-05-10T17:15:08.374Z,1.70
2023-05-10T17:17:36.785Z,1.60
2023-05-10T17:20:05.619Z,1.70
2023-05-10T17:22:34.025Z,1.60
2023-05-10T17:25:02.396Z,1.90
2023-05-10T17:27:30.714Z,2.10
2023-05-10T17:29:59.615Z,1.70
2023-05-10T17:32:28.110Z,2.00
2023-05-10T17:34:56.514Z,2.00
2023-05-10T17:37:25.091Z,1.90
2023-05-10T17:39:53.436Z,1.50
2023-05-10T17:42:21.827Z,1.70
2023-05-10T17:44:50.168Z,1.80
2023-05-10T17:47:19.006Z,2.10
2023-05-10T17:49:47.400Z,1.90
2023-05-10T17:52:15.744Z,1.50
2023-05-10T17:54:44.063Z,1.80
2023-05-10T17:57:12.431Z,2.30
2023-05-10T17:59:40.736Z,2.40
2023-05-10T18:02:09.159Z,2.40
2023-05-10T18:04:40.650Z,2.20
2023-05-10T18:07:10.003Z,2.00
2023-05-10T18:09:38.420Z,1.70
2023-05-10T18:12:06.841Z,3.60
2023-05-10T18:14:41.259Z,2.60
2023-05-10T18:17:10.405Z,3.70
2023-05-10T18:19:40.204Z,2.70
2023-05-10T18:22:10.698Z,2.30
2023-05-10T18:27:09.428Z,1.60
2023-05-10T18:29:37.934Z,1.80
2023-05-10T18:32:06.949Z,1.90
2023-05-10T18:34:35.527Z,1.80
2023-05-10T18:37:07.888Z,1.90
2023-05-10T18:39:37.946Z,1.60
2023-05-10T18:42:06.424Z,1.70
2023-05-10T18:44:34.898Z,2.00
2023-05-10T18:47:03.267Z,1.90
2023-05-10T18:49:32.273Z,1.80
2023-05-10T18:52:00.870Z,2.80
2023-05-10T18:54:30.189Z,2.40
2023-05-10T18:56:59.023Z,2.30
2023-05-10T18:59:28.165Z,1.90
2023-05-10T19:01:57.442Z,2.10
2023-05-10T19:04:26.280Z,2.20
2023-05-10T19:06:56.048Z,2.40
2023-05-10T19:09:24.634Z,2.40
2023-05-10T19:11:52.981Z,2.90
2023-05-10T19:14:21.670Z,3.20
2023-05-10T19:16:53.195Z,2.30
2023-05-10T19:19:24.788Z,2.60
2023-05-10T19:21:55.122Z,2.00
2023-05-10T19:24:25.851Z,2.50
2023-05-10T19:26:56.366Z,2.40
2023-05-10T19:29:25.573Z,2.70
2023-05-10T19:31:54.696Z,2.40
2023-05-10T19:34:23.158Z,3.10
2023-05-10T19:36:51.615Z,2.60
2023-05-10T19:39:20.133Z,2.80
2023-05-10T19:41:50.351Z,3.10
2023-05-10T19:44:18.736Z,2.90
2023-05-10T19:46:47.297Z,2.80
2023-05-10T19:49:17.253Z,2.50
2023-05-10T19:51:45.955Z,2.70
2023-05-10T19:54:14.366Z,2.10
2023-05-10T19:56:42.730Z,2.70
2023-05-10T19:59:11.104Z,3.30
2023-05-10T20:01:39.647Z,3.00
2023-05-10T20:04:08.265Z,2.70
2023-05-10T20:06:36.845Z,2.70
2023-05-10T20:09:05.208Z,2.80
2023-05-10T20:11:33.698Z,3.20
2023-05-10T20:14:02.229Z,3.00
2023-05-10T20:16:30.733Z,2.90
2023-05-10T20:18:59.210Z,2.50
2023-05-10T20:21:27.687Z,2.70
2023-05-10T20:23:56.191Z,2.70
2023-05-10T20:26:24.518Z,2.80
2023-05-10T20:28:52.878Z,2.90
2023-05-10T20:31:21.299Z,3.00
2023-05-10T20:33:49.737Z,3.00
2023-05-10T20:36:18.098Z,3.30
2023-05-10T20:38:46.481Z,2.50
2023-05-10T20:41:15.407Z,2.30
2023-05-10T20:43:43.717Z,2.90
2023-05-10T20:46:12.532Z,2.60
2023-05-10T20:48:41.293Z,2.70
2023-05-10T20:51:10.142Z,2.60
2023-05-10T20:53:38.520Z,2.60
2023-05-10T20:56:06.888Z,2.60
2023-05-10T20:58:35.847Z,2.30
2023-05-10T21:01:04.196Z,2.70
2023-05-10T21:03:32.672Z,3.10
2023-05-10T21:06:01.017Z,2.50
2023-05-10T21:08:29.452Z,3.00
2023-05-10T21:10:59.727Z,2.70
2023-05-10T21:13:28.092Z,2.80
2023-05-10T21:15:56.546Z,2.90
2023-05-10T21:18:25.183Z,2.70
2023-05-10T21:20:53.700Z,3.00
2023-05-10T21:23:22.078Z,3.30
2023-05-10T21:25:50.480Z,2.70
2023-05-10T21:28:18.926Z,2.30
2023-05-10T21:30:48.056Z,2.50
2023-05-10T21:33:16.372Z,2.70
2023-05-10T21:35:44.823Z,2.40
2023-05-10T21:38:13.216Z,2.30
2023-05-10T21:40:41.679Z,2.90
2023-05-10T21:43:11.381Z,2.90
2023-05-10T21:45:39.948Z,2.70
2023-05-10T21:48:08.723Z,2.60
2023-05-10T21:50:37.099Z,2.70
2023-05-10T21:53:05.788Z,2.40
2023-05-10T21:55:34.428Z,2.60
2023-05-10T21:58:02.871Z,2.60
2023-05-10T22:00:32.846Z,2.50
2023-05-10T22:03:02.606Z,2.40
2023-05-10T22:05:31.115Z,2.50
2023-05-10T22:07:59.668Z,3.10
2023-05-10T22:10:28.043Z,2.70
2023-05-10T22:12:57.360Z,2.70
2023-05-10T22:15:26.884Z,2.70
2023-05-10T22:17:55.318Z,2.50
2023-05-10T22:20:23.754Z,2.50
2023-05-10T22:22:52.191Z,2.50
2023-05-10T22:25:20.643Z,2.40
2023-05-10T22:27:48.962Z,2.50
2023-05-10T22:30:17.991Z,2.10
2023-05-10T22:32:46.802Z,2.70
2023-05-10T22:35:15.140Z,2.70
2023-05-10T22:37:43.621Z,2.30
2023-05-10T22:40:12.476Z,2.30
2023-05-10T22:42:40.936Z,2.30
2023-05-10T22:45:09.979Z,2.40
2023-05-10T22:47:38.411Z,2.50
2023-05-10T22:50:07.439Z,2.40
2023-05-10T22:52:38.900Z,2.60
2023-05-10T22:55:07.672Z,2.40
2023-05-10T22:57:36.314Z,2.50
2023-05-10T23:00:05.388Z,2.70
2023-05-10T23:02:34.686Z,2.50
2023-05-10T23:05:04.010Z,2.40
2023-05-10T23:07:32.548Z,2.40
2023-05-10T23:10:00.828Z,3.00
2023-05-10T23:12:31.351Z,2.40
2023-05-10T23:14:59.845Z,2.50
2023-05-10T23:17:28.207Z,2.60
2023-05-10T23:19:56.621Z,2.50
2023-05-10T23:22:24.944Z,2.50
2023-05-10T23:24:53.280Z,2.40
2023-05-10T23:27:21.806Z,3.00
2023-05-10T23:29:55.631Z,2.60
2023-05-10T23:32:24.160Z,2.40
2023-05-10T23:34:52.585Z,2.80
2023-05-10T23:37:21.296Z,2.90
2023-05-10T23:39:49.748Z,2.60
2023-05-10T23:42:18.161Z,2.80
2023-05-10T23:44:47.000Z,2.80
2023-05-10T23:47:15.287Z,2.70
2023-05-10T23:49:43.774Z,2.60
2023-05-10T23:52:12.249Z,2.50
2023-05-10T23:54:40.572Z,2.60
2023-05-10T23:57:08.996Z,2.60
2023-05-10T23:59:37.280Z,3.10
